Penns Park, Pennsylvania
Current Conditions -  °F | °C
As of 5:54 PM on Friday 19 Dec 2014 (Local Time) from KDYL Reporting Station
Clear Clear  
Wind Chill: 24°   Ceiling: Unl
Heat Index: 30°   Visibility: 10mi
Dew Point: 21°   Wind: 6mph
Humidity: 69%   Direction: 350°N
Pressure: 30.13"   Gusts: NA
Location:  40.27°N, 75°W
Report Text: KDYL 192254Z AUTO 35005KT 10SM CLR M01/M06 A3013 RMK AO2 SLP210 T10111061
Loading
Personal Weather Stations






























Interactive Weather Map New forecast layout! Learn more

10-Day Weather Forecast

Advertisements
Track Severe Weather on mobile